Time;durP1;ratioP1;P1;durP2;ratioP2;P2;SDS_P1;SDS_P2;PMS_P1;PMS_P2;Temp;Humidity;BMP_temperature;BMP_pressure;BME280_temperature;BME280_humidity;BME280_pressure;Samples;Min_cycle;Max_cycle;Signal;HPM_P1;HPM_P2
2022/06/05 00:02:25;;;;;;;5.90;3.92;;;;;;;14.81;62.40;101415.94;5020639;28;20104;-84
2022/06/05 00:05:27;;;;;;;4.03;3.33;;;;;;;14.76;62.85;101429.22;5031607;28;20044;-83
2022/06/05 00:08:35;;;;;;;5.60;4.18;;;;;;;14.75;63.13;101418.69;5008393;28;20146;-84
2022/06/05 00:11:03;;;;;;;3.83;3.53;;;;;;;14.71;63.03;101413.44;5030429;28;20049;-86
2022/06/05 00:13:41;;;;;;;4.88;4.35;;;;;;;14.67;63.56;101409.13;5016739;28;20061;-82
2022/06/05 00:16:08;;;;;;;7.65;5.97;;;;;;;14.65;64.11;101404.75;4996923;28;20867;-82
2022/06/05 00:18:38;;;;;;;5.90;5.28;;;;;;;14.60;63.93;101399.53;5020120;28;20130;-85
2022/06/05 00:21:06;;;;;;;5.35;4.85;;;;;;;14.55;64.62;101407.50;4999366;28;20041;-84
2022/06/05 00:23:33;;;;;;;4.55;4.13;;;;;;;14.51;65.00;101400.53;5001514;28;20076;-84
2022/06/05 00:26:21;;;;;;;4.22;3.80;;;;;;;14.46;65.15;101397.09;5011882;28;20052;-85
2022/06/05 00:29:04;;;;;;;5.00;4.10;;;;;;;14.43;66.45;101388.34;5017563;28;20085;-84
2022/06/05 00:32:15;;;;;;;5.18;4.05;;;;;;;14.43;66.42;101386.59;5014127;28;20077;-85
2022/06/05 00:34:42;;;;;;;5.22;4.72;;;;;;;14.39;66.67;101379.59;4998386;28;20046;-85
2022/06/05 00:37:32;;;;;;;5.88;5.00;;;;;;;14.34;67.13;101377.03;5022767;28;20518;-85
2022/06/05 00:40:31;;;;;;;6.82;5.57;;;;;;;14.29;68.40;101367.44;5011596;28;20053;-83
2022/06/05 00:43:01;;;;;;;7.15;5.43;;;;;;;14.25;67.95;101368.38;5010884;28;20706;-82
2022/06/05 00:45:30;;;;;;;5.45;4.45;;;;;;;14.20;68.53;101364.03;5000990;28;20496;-84
2022/06/05 00:47:56;;;;;;;6.40;4.75;;;;;;;14.16;68.63;101366.75;5010504;28;20064;-84
2022/06/05 00:50:29;;;;;;;5.07;4.57;;;;;;;14.11;69.38;101360.66;5016064;28;20553;-86
2022/06/05 00:53:00;;;;;;;5.53;5.00;;;;;;;14.06;69.75;101360.72;5012212;28;20052;-79
2022/06/05 00:55:31;;;;;;;4.47;4.10;;;;;;;14.03;69.64;101356.34;5000166;28;20119;-79
2022/06/05 00:57:58;;;;;;;6.15;4.75;;;;;;;13.99;70.41;101362.56;5013286;28;20042;-82
2022/06/05 01:00:39;;;;;;;5.63;5.05;;;;;;;13.95;71.61;101363.47;5017266;28;20045;-78
2022/06/05 01:03:10;;;;;;;5.95;4.95;;;;;;;13.92;71.46;101366.13;5013827;28;20060;-80
2022/06/05 01:05:39;;;;;;;10.95;8.23;;;;;;;13.94;71.87;101358.25;5022656;28;20046;-79
2022/06/05 01:08:07;;;;;;;11.90;5.45;;;;;;;13.93;72.41;101346.81;5010462;28;20451;-81
2022/06/05 01:11:16;;;;;;;6.13;5.00;;;;;;;13.87;72.43;101334.63;5018606;28;20057;-81
2022/06/05 01:14:17;;;;;;;5.15;4.65;;;;;;;13.81;72.80;101334.69;5014585;28;20053;-81
2022/06/05 01:17:08;;;;;;;9.05;6.57;;;;;;;13.73;73.83;101341.81;5020387;28;20125;-82
2022/06/05 01:19:57;;;;;;;6.70;5.78;;;;;;;13.71;74.04;101341.81;4998732;28;20550;-80
2022/06/05 01:22:58;;;;;;;6.60;5.45;;;;;;;13.66;74.57;101343.63;5019617;28;20062;-81
2022/06/05 01:25:46;;;;;;;8.35;5.80;;;;;;;13.60;74.62;101340.16;5011608;28;20041;-81
2022/06/05 01:28:19;;;;;;;7.20;5.95;;;;;;;13.57;75.61;101341.06;5020070;28;20450;-80
2022/06/05 01:31:18;;;;;;;6.60;5.40;;;;;;;13.54;75.63;101335.84;5002349;28;20060;-80
2022/06/05 01:34:21;;;;;;;6.38;5.63;;;;;;;13.49;76.39;101335.91;5003195;28;20037;-81
2022/06/05 01:37:10;;;;;;;10.17;6.47;;;;;;;13.49;76.45;101345.53;4995277;28;20053;-81
2022/06/05 01:39:47;;;;;;;7.65;6.45;;;;;;;13.48;77.00;101343.78;5015506;28;20405;-81
2022/06/05 01:42:28;;;;;;;10.02;6.38;;;;;;;13.49;76.91;101350.81;5000271;28;20064;-80
2022/06/05 01:45:08;;;;;;;5.85;5.25;;;;;;;13.47;77.33;101355.22;4999279;28;20049;-83
2022/06/05 01:47:41;;;;;;;12.13;5.45;;;;;;;13.42;77.05;101344.75;5015774;28;20056;-82
2022/06/05 01:50:24;;;;;;;5.63;5.10;;;;;;;13.37;77.60;101339.50;4995347;28;20057;-82
2022/06/05 01:53:00;;;;;;;6.90;5.88;;;;;;;13.34;78.04;101329.00;5013750;28;20467;-81
2022/06/05 01:55:35;;;;;;;6.95;5.20;;;;;;;13.33;78.55;101329.03;5025686;28;20049;-81
2022/06/05 01:58:07;;;;;;;6.20;5.60;;;;;;;13.32;78.96;101332.53;5015410;28;20128;-81
2022/06/05 02:00:37;;;;;;;6.95;6.00;;;;;;;13.29;79.07;101330.81;4995070;28;20113;-80
2022/06/05 02:03:13;;;;;;;6.65;6.03;;;;;;;13.28;79.50;101331.69;5002841;28;20045;-78
2022/06/05 02:05:50;;;;;;;8.02;5.45;;;;;;;13.28;80.29;101333.44;5002422;28;20049;-78
2022/06/05 02:08:27;;;;;;;7.00;5.95;;;;;;;13.27;80.35;101334.34;5015160;28;20045;-79
2022/06/05 02:11:26;;;;;;;8.20;6.35;;;;;;;13.23;80.71;101339.63;5014981;28;20511;-81
2022/06/05 02:14:01;;;;;;;9.25;6.07;;;;;;;13.16;80.48;101331.81;5001229;28;20381;-81
2022/06/05 02:16:30;;;;;;;6.85;6.07;;;;;;;13.07;80.95;101331.00;5031161;28;20133;-81
2022/06/05 02:19:05;;;;;;;10.77;8.45;;;;;;;13.04;81.08;101324.91;5019511;28;20057;-80
2022/06/05 02:21:35;;;;;;;7.90;5.95;;;;;;;13.01;82.29;101325.78;4996821;28;20053;-83
2022/06/05 02:24:01;;;;;;;6.38;5.35;;;;;;;12.99;81.84;101322.28;5012999;28;20103;-83
2022/06/05 02:26:31;;;;;;;9.40;7.57;;;;;;;12.97;81.57;101317.94;5010924;28;20040;-79
2022/06/05 02:29:09;;;;;;;7.75;6.10;;;;;;;12.92;82.26;101315.38;5014770;28;20131;-79
2022/06/05 02:31:58;;;;;;;7.25;6.50;;;;;;;12.88;82.46;101317.13;5030268;28;20124;-80
2022/06/05 02:34:39;;;;;;;7.22;5.75;;;;;;;12.83;82.46;101308.41;5003705;28;20054;-79
2022/06/05 02:37:55;;;;;;;6.45;5.70;;;;;;;12.78;83.09;101307.59;5006339;28;20049;-80
2022/06/05 02:40:48;;;;;;;9.40;6.82;;;;;;;12.77;83.86;101307.59;5028153;28;20045;-81
2022/06/05 02:43:22;;;;;;;9.73;6.50;;;;;;;12.76;83.91;101313.72;5018344;28;20053;-79
2022/06/05 02:46:20;;;;;;;6.88;6.18;;;;;;;12.76;83.55;101313.72;5032402;28;20037;-80
2022/06/05 02:48:58;;;;;;;6.75;6.03;;;;;;;12.74;83.99;101305.88;5011577;28;20049;-81
2022/06/05 02:51:34;;;;;;;7.13;6.40;;;;;;;12.75;83.68;101307.63;5030700;28;21057;-80
2022/06/05 02:54:01;;;;;;;8.38;6.22;;;;;;;12.73;84.05;101297.09;5021023;28;20045;-81
2022/06/05 02:56:31;;;;;;;10.30;6.38;;;;;;;12.70;83.93;101301.53;4989954;28;20041;-80
2022/06/05 02:59:00;;;;;;;6.53;5.93;;;;;;;12.70;84.05;101302.38;5012567;28;20034;-80
2022/06/05 03:04:11;;;;;;;15.68;9.50;;;;;;;12.69;84.23;101308.50;5012619;28;20488;-81
2022/06/05 03:06:42;;;;;;;6.68;6.00;;;;;;;12.69;83.98;101305.03;4990666;28;20455;-80
2022/06/05 03:09:10;;;;;;;7.03;6.30;;;;;;;12.69;84.53;101302.41;5005692;28;20148;-81
2022/06/05 03:11:37;;;;;;;7.10;6.32;;;;;;;12.67;83.60;101310.28;5003739;28;20049;-79
2022/06/05 03:14:04;;;;;;;6.85;5.97;;;;;;;12.68;84.35;101300.66;5013599;28;20136;-80
2022/06/05 03:16:31;;;;;;;7.43;6.47;;;;;;;12.68;84.33;101296.25;4999332;28;20042;-81
2022/06/05 03:18:57;;;;;;;8.30;5.97;;;;;;;12.67;84.08;101293.66;5012166;28;20140;-80
2022/06/05 03:21:24;;;;;;;8.02;6.22;;;;;;;12.66;83.89;101289.25;5001509;28;20767;-81
2022/06/05 03:23:51;;;;;;;7.18;6.43;;;;;;;12.65;84.19;101296.28;4992475;28;20156;-82
2022/06/05 03:26:17;;;;;;;8.70;6.63;;;;;;;12.64;84.56;101291.06;4998378;28;20065;-79
2022/06/05 03:28:44;;;;;;;8.75;5.30;;;;;;;12.64;84.40;101293.69;5014650;28;20104;-82
2022/06/05 03:31:10;;;;;;;10.20;6.65;;;;;;;12.63;84.14;101294.56;5015198;28;20077;-82
2022/06/05 03:33:38;;;;;;;7.53;6.53;;;;;;;12.63;84.23;101297.19;5013411;28;20042;-80
2022/06/05 03:36:17;;;;;;;6.97;6.38;;;;;;;12.63;84.78;101292.78;5022085;28;20049;-85
2022/06/05 03:38:44;;;;;;;6.35;5.57;;;;;;;12.65;83.78;101291.03;5014168;28;20050;-81
2022/06/05 03:41:13;;;;;;;6.72;6.00;;;;;;;12.65;83.66;101290.19;5010846;28;20056;-80
2022/06/05 03:43:40;;;;;;;6.28;5.70;;;;;;;12.65;83.94;101292.81;5005542;28;20045;-80
2022/06/05 03:46:10;;;;;;;9.10;5.32;;;;;;;12.65;83.98;101293.66;5006375;28;20396;-80
2022/06/05 03:48:37;;;;;;;10.05;6.22;;;;;;;12.67;83.82;101291.00;5019897;28;20404;-80
2022/06/05 03:51:16;;;;;;;6.63;5.85;;;;;;;12.70;83.60;101280.50;5006719;28;20053;-81
2022/06/05 03:53:43;;;;;;;11.07;5.70;;;;;;;12.72;83.56;101277.00;5021563;28;20061;-79
2022/06/05 03:56:18;;;;;;;7.93;5.85;;;;;;;12.76;83.32;101271.69;5015632;28;20098;-80
2022/06/05 03:58:47;;;;;;;7.95;6.25;;;;;;;12.81;82.85;101265.50;5020780;28;20045;-82
2022/06/05 04:01:17;;;;;;;7.07;5.85;;;;;;;12.84;82.47;101260.25;5038759;28;20601;-80
2022/06/05 04:03:48;;;;;;;7.45;5.38;;;;;;;12.90;81.99;101254.06;5004866;28;20804;-80
2022/06/05 04:06:28;;;;;;;6.07;5.22;;;;;;;12.94;81.55;101245.25;5013669;28;20050;-81
2022/06/05 04:09:01;;;;;;;5.70;5.07;;;;;;;13.00;80.94;101239.09;5006017;28;20179;-79
2022/06/05 04:11:31;;;;;;;7.22;6.43;;;;;;;13.04;80.55;101238.16;5014633;28;20056;-80
2022/06/05 04:13:57;;;;;;;6.18;5.57;;;;;;;13.09;79.95;101239.00;5018757;28;20057;-83
2022/06/05 04:16:29;;;;;;;6.28;5.32;;;;;;;13.13;80.00;101232.81;4995059;28;20053;-81
2022/06/05 04:18:59;;;;;;;5.72;5.20;;;;;;;13.20;79.25;101229.22;5005759;28;20060;-81
2022/06/05 04:21:31;;;;;;;6.90;6.22;;;;;;;13.26;78.58;101225.69;4998261;28;20119;-82
2022/06/05 04:23:58;;;;;;;5.82;5.00;;;;;;;13.34;78.34;101228.22;5016493;28;20125;-80
2022/06/05 04:26:29;;;;;;;6.72;5.28;;;;;;;13.39;77.78;101226.44;5016527;28;20045;-80
2022/06/05 04:28:57;;;;;;;7.40;5.57;;;;;;;13.45;77.39;101223.72;5014458;28;20046;-79
2022/06/05 04:31:35;;;;;;;5.07;4.68;;;;;;;13.53;76.77;101229.78;5018691;28;20071;-80
2022/06/05 04:34:09;;;;;;;5.47;4.88;;;;;;;13.60;76.31;101227.06;4999974;28;20052;-81
2022/06/05 04:36:36;;;;;;;6.45;5.00;;;;;;;13.66;75.96;101224.34;5005106;28;20045;-82
2022/06/05 04:39:04;;;;;;;6.07;5.35;;;;;;;13.71;75.21;101217.28;5017632;28;20046;-80
2022/06/05 04:41:31;;;;;;;5.03;4.53;;;;;;;13.76;75.03;101225.13;5034194;28;20518;-81
2022/06/05 04:43:58;;;;;;;6.00;4.45;;;;;;;13.78;74.71;101224.22;5020876;28;20041;-80
2022/06/05 04:46:28;;;;;;;5.32;4.82;;;;;;;13.81;74.25;101216.25;5034845;28;20148;-80
2022/06/05 04:48:55;;;;;;;4.80;4.13;;;;;;;13.86;73.96;101210.94;5016598;28;20111;-82
2022/06/05 04:51:24;;;;;;;5.18;4.70;;;;;;;13.94;73.90;101213.47;5018597;28;20050;-82
2022/06/05 04:53:53;;;;;;;5.10;4.65;;;;;;;14.00;73.42;101209.00;5018163;28;20090;-79
2022/06/05 04:56:24;;;;;;;4.95;4.50;;;;;;;14.06;72.97;101214.16;5003711;28;20129;-80
2022/06/05 04:58:53;;;;;;;5.35;4.82;;;;;;;14.11;72.75;101198.31;5021528;28;20054;-82
2022/06/05 05:01:32;;;;;;;5.90;4.90;;;;;;;14.17;72.57;101200.84;5021825;28;20433;-80
2022/06/05 05:04:03;;;;;;;9.60;4.97;;;;;;;14.23;72.24;101197.25;5014180;28;20049;-81
2022/06/05 05:06:32;;;;;;;5.35;4.63;;;;;;;14.30;72.34;101198.00;5014680;28;20053;-81
2022/06/05 05:08:59;;;;;;;5.50;5.00;;;;;;;14.35;71.63;101204.97;5017265;28;20144;-80
2022/06/05 05:11:27;;;;;;;7.22;4.78;;;;;;;14.44;71.75;101197.81;5016293;28;20056;-82
2022/06/05 05:13:58;;;;;;;5.00;4.25;;;;;;;14.53;71.24;101201.13;5019595;28;20415;-81
2022/06/05 05:16:28;;;;;;;7.63;5.07;;;;;;;14.62;70.88;101199.25;5019334;28;20150;-79
2022/06/05 05:18:56;;;;;;;6.35;4.70;;;;;;;14.69;70.66;101208.81;5017083;28;20049;-82
2022/06/05 05:21:27;;;;;;;4.85;4.35;;;;;;;14.76;70.15;101193.75;5031279;28;20607;-80
2022/06/05 05:23:55;;;;;;;7.70;4.50;;;;;;;14.82;69.83;101194.56;5013762;28;20506;-81
2022/06/05 05:26:29;;;;;;;5.18;4.68;;;;;;;14.88;69.93;101198.84;5024527;28;20427;-85
2022/06/05 05:28:56;;;;;;;4.60;4.20;;;;;;;14.97;69.22;101197.81;5029022;28;20045;-84
2022/06/05 05:31:33;;;;;;;6.63;4.63;;;;;;;15.05;69.36;101202.00;5032216;28;20065;-85
2022/06/05 05:34:00;;;;;;;7.07;5.10;;;;;;;15.13;68.71;101201.88;5024122;28;20057;-85
2022/06/05 05:36:29;;;;;;;7.38;4.40;;;;;;;15.18;68.67;101197.38;5024306;28;20139;-87
2022/06/05 05:44:29;;;;;;;6.55;5.13;;;;;;;15.45;67.89;101210.03;5024140;28;20044;-84
2022/06/05 05:46:56;;;;;;;6.32;4.97;;;;;;;15.52;67.65;101203.75;5031341;28;20072;-85
2022/06/05 05:49:23;;;;;;;6.80;5.03;;;;;;;15.61;67.48;101203.56;5029518;28;20069;-85
2022/06/05 05:51:52;;;;;;;8.23;6.00;;;;;;;15.74;67.30;101209.44;5031283;28;20065;-86
2022/06/05 05:54:19;;;;;;;5.80;5.30;;;;;;;15.82;66.76;101210.16;5029361;28;20128;-85
2022/06/05 05:56:46;;;;;;;5.63;5.15;;;;;;;15.92;66.98;101215.25;5010607;28;20045;-86
2022/06/05 05:59:12;;;;;;;6.32;4.40;;;;;;;16.06;66.63;101210.56;5010026;28;20050;-85
2022/06/05 06:01:45;;;;;;;7.30;5.15;;;;;;;16.17;66.18;101200.59;5014404;28;20066;-85
2022/06/05 06:04:12;;;;;;;5.43;4.90;;;;;;;16.21;65.71;101202.25;5028008;28;20046;-86
2022/06/05 06:06:43;;;;;;;4.32;4.00;;;;;;;16.25;65.94;101203.03;5029488;28;20113;-85
2022/06/05 06:09:10;;;;;;;7.22;4.90;;;;;;;16.34;65.62;101209.88;5029854;28;20103;-87
2022/06/05 06:11:38;;;;;;;6.43;5.07;;;;;;;16.38;65.48;101211.53;5032600;28;20044;-86
2022/06/05 06:14:05;;;;;;;6.05;4.78;;;;;;;16.39;65.58;101200.06;5029214;28;20084;-86
2022/06/05 06:16:33;;;;;;;7.32;5.05;;;;;;;16.42;65.57;101204.41;5013478;28;20109;-87
2022/06/05 06:19:00;;;;;;;4.88;4.38;;;;;;;16.44;65.95;101205.22;5030427;28;20293;-87
2022/06/05 06:21:28;;;;;;;4.47;4.18;;;;;;;16.51;65.59;101212.13;5012629;28;20072;-86
2022/06/05 06:23:58;;;;;;;12.00;6.03;;;;;;;16.62;65.09;101191.59;5045021;28;20033;-86
2022/06/05 06:26:25;;;;;;;5.63;4.93;;;;;;;16.63;65.10;101200.38;5015247;28;20417;-85
2022/06/05 06:28:52;;;;;;;6.57;5.05;;;;;;;16.66;65.32;101197.63;5032058;28;20119;-87
2022/06/05 06:31:19;;;;;;;7.07;5.28;;;;;;;16.78;65.01;101199.09;5022044;28;20188;-85
2022/06/05 06:33:49;;;;;;;4.75;4.35;;;;;;;16.88;65.00;101195.28;5040092;28;20049;-88
2022/06/05 06:36:18;;;;;;;6.90;5.15;;;;;;;16.98;64.45;101183.59;5016354;28;20050;-81
2022/06/05 06:38:45;;;;;;;6.00;5.50;;;;;;;17.08;64.52;101178.06;5000891;28;20491;-82
2022/06/05 06:41:16;;;;;;;12.45;6.60;;;;;;;17.24;63.97;101175.88;5017924;28;20083;-83
2022/06/05 06:43:44;;;;;;;6.45;5.15;;;;;;;17.40;63.32;101169.19;5020298;28;20576;-83
2022/06/05 06:46:12;;;;;;;5.97;5.35;;;;;;;17.50;62.97;101170.66;5005775;28;20512;-81
2022/06/05 06:48:39;;;;;;;5.93;4.82;;;;;;;17.60;62.79;101170.38;5005945;28;20041;-81
2022/06/05 06:51:08;;;;;;;6.53;5.28;;;;;;;17.62;62.49;101163.28;4996310;28;20472;-82
2022/06/05 06:53:36;;;;;;;4.45;4.05;;;;;;;17.68;62.41;101157.81;5018588;28;20443;-82
2022/06/05 06:56:14;;;;;;;5.35;4.95;;;;;;;17.77;62.22;101157.53;5000537;28;20074;-80
2022/06/05 06:58:42;;;;;;;5.93;5.20;;;;;;;17.84;61.88;101156.41;5036330;28;20041;-81
2022/06/05 07:01:10;;;;;;;5.47;5.07;;;;;;;17.92;61.90;101150.00;5018137;28;20103;-81
2022/06/05 07:03:37;;;;;;;8.02;4.55;;;;;;;18.00;61.78;101143.59;5004923;28;20050;-82
2022/06/05 07:06:08;;;;;;;6.22;4.70;;;;;;;18.08;61.48;101134.50;5018508;28;20049;-82
2022/06/05 07:08:35;;;;;;;5.40;4.80;;;;;;;18.17;61.30;101126.25;5012783;28;20338;-81
2022/06/05 07:11:07;;;;;;;4.35;3.95;;;;;;;18.31;60.82;101133.75;5004551;28;20072;-81
2022/06/05 07:13:34;;;;;;;5.07;4.68;;;;;;;18.45;60.40;101128.84;5013442;28;20045;-81
2022/06/05 07:16:07;;;;;;;5.32;4.95;;;;;;;18.57;59.66;101124.06;5034610;28;20566;-80
2022/06/05 07:18:34;;;;;;;5.32;4.82;;;;;;;18.64;59.58;101125.56;4997682;28;20072;-82
2022/06/05 07:21:16;;;;;;;6.82;4.70;;;;;;;18.80;59.32;101120.59;5019398;28;20060;-82
2022/06/05 07:23:49;;;;;;;7.13;4.30;;;;;;;19.15;58.15;101118.44;5018285;28;20049;-81
2022/06/05 07:26:20;;;;;;;6.47;4.40;;;;;;;19.54;56.88;101112.53;5033120;28;20041;-81
2022/06/05 07:28:47;;;;;;;8.52;5.20;;;;;;;20.02;55.94;101109.81;5002437;28;20404;-82
2022/06/05 07:31:16;;;;;;;8.50;5.43;;;;;;;20.51;54.71;101102.41;5002611;28;20755;-82
2022/06/05 07:33:43;;;;;;;7.10;5.63;;;;;;;21.14;53.37;101099.59;5006251;28;20049;-81
2022/06/05 07:36:15;;;;;;;5.43;4.55;;;;;;;21.76;50.89;101096.72;5018697;28;20049;-83
2022/06/05 07:38:45;;;;;;;5.63;4.70;;;;;;;22.16;49.86;101099.19;5019807;28;20049;-80
2022/06/05 07:41:27;;;;;;;6.30;5.10;;;;;;;22.44;48.51;101104.03;4997925;28;20122;-83
2022/06/05 07:43:55;;;;;;;4.20;3.90;;;;;;;22.77;48.51;101107.69;5031492;28;20049;-81
2022/06/05 07:46:23;;;;;;;7.72;4.60;;;;;;;23.14;47.73;101105.75;5017346;28;20083;-83
2022/06/05 07:48:50;;;;;;;4.63;4.28;;;;;;;23.60;47.09;101100.50;5012371;28;20053;-83
2022/06/05 07:56:51;;;;;;;4.55;4.15;;;;;;;24.59;43.44;101089.38;5029682;28;20037;-83
2022/06/05 07:59:18;;;;;;;4.32;4.00;;;;;;;24.49;43.81;101100.75;5019889;28;20558;-82
2022/06/05 08:01:45;;;;;;;4.10;3.80;;;;;;;24.46;44.30;101093.78;5006279;28;20057;-83
2022/06/05 08:04:12;;;;;;;4.57;4.18;;;;;;;24.74;43.63;101092.09;5000470;28;20144;-84
2022/06/05 08:06:42;;;;;;;5.25;4.07;;;;;;;24.84;43.42;101095.09;4998181;28;20054;-82
2022/06/05 08:09:12;;;;;;;4.70;4.00;;;;;;;24.87;43.17;101090.38;5016353;28;20553;-82
2022/06/05 08:11:42;;;;;;;5.60;4.00;;;;;;;24.99;42.73;101091.44;4999272;28;20584;-81
2022/06/05 08:14:10;;;;;;;4.20;3.90;;;;;;;24.96;42.05;101080.06;5001095;28;20057;-82
2022/06/05 08:16:39;;;;;;;3.72;3.45;;;;;;;24.59;43.03;101083.19;4999495;28;20050;-82
2022/06/05 08:19:07;;;;;;;4.78;4.35;;;;;;;24.53;43.03;101072.84;5019547;28;20670;-82
2022/06/05 08:21:33;;;;;;;4.57;3.70;;;;;;;24.71;42.93;101068.22;5016079;28;20053;-82
2022/06/05 08:24:00;;;;;;;4.68;3.70;;;;;;;24.64;43.01;101066.84;5014750;28;20049;-82
2022/06/05 08:26:29;;;;;;;4.13;3.78;;;;;;;24.60;42.59;101064.34;5011536;28;20060;-81
2022/06/05 08:28:56;;;;;;;5.07;4.57;;;;;;;24.50;43.07;101055.16;5016643;28;20052;-81
2022/06/05 08:31:25;;;;;;;7.45;4.85;;;;;;;24.33;43.28;101045.50;5007292;28;20046;-82
2022/06/05 08:33:52;;;;;;;4.65;4.18;;;;;;;24.20;43.59;101041.84;5027337;28;20149;-81
2022/06/05 08:36:18;;;;;;;4.10;3.78;;;;;;;24.16;43.47;101046.50;5015156;28;20077;-82
2022/06/05 08:41:29;;;;;;;4.10;3.75;;;;;;;23.87;44.21;101043.72;5012886;28;20041;-82
2022/06/05 08:44:39;;;;;;;4.65;4.22;;;;;;;23.97;44.04;101038.72;5020295;28;20419;-81
2022/06/05 08:47:26;;;;;;;3.85;3.58;;;;;;;24.13;43.68;101032.44;5039669;28;20052;-81
2022/06/05 08:50:12;;;;;;;7.85;4.38;;;;;;;24.20;43.50;101032.00;5001455;28;20108;-82
2022/06/05 08:53:03;;;;;;;6.18;3.92;;;;;;;24.46;43.21;101037.56;5006689;28;20072;-82
2022/06/05 08:55:40;;;;;;;6.07;3.35;;;;;;;24.66;42.25;101033.69;5021400;28;20064;-82
2022/06/05 08:58:19;;;;;;;3.88;3.58;;;;;;;25.00;41.79;101036.91;5023475;28;20065;-82
2022/06/05 09:00:57;;;;;;;6.28;3.85;;;;;;;25.19;41.42;101035.75;5023227;28;20053;-82
2022/06/05 09:04:05;;;;;;;5.07;3.40;;;;;;;25.73;40.35;101032.22;5003965;28;20045;-83
2022/06/05 09:06:50;;;;;;;3.88;3.58;;;;;;;25.91;39.66;101017.56;5032471;28;20045;-81
2022/06/05 09:09:36;;;;;;;3.50;3.17;;;;;;;26.49;39.05;101016.34;5005551;28;20046;-85
2022/06/05 09:12:28;;;;;;;3.80;3.53;;;;;;;26.88;38.00;101023.44;5017450;28;20046;-82
2022/06/05 09:15:16;;;;;;;3.78;3.47;;;;;;;26.90;37.45;101020.66;5022056;28;20095;-82
2022/06/05 09:17:54;;;;;;;5.60;4.53;;;;;;;27.19;37.51;101034.63;5015517;28;20049;-84
2022/06/05 09:20:49;;;;;;;4.70;4.22;;;;;;;27.34;37.35;101026.41;5036956;28;20134;-84
2022/06/05 09:23:36;;;;;;;4.28;3.88;;;;;;;27.12;37.27;101019.06;5016832;28;20851;-82
2022/06/05 09:26:27;;;;;;;3.47;3.28;;;;;;;27.43;37.16;101006.06;5021737;28;20052;-82
2022/06/05 09:29:23;;;;;;;3.22;2.88;;;;;;;28.08;36.28;101001.19;5003966;28;20041;-82
2022/06/05 09:32:16;;;;;;;3.72;3.38;;;;;;;28.36;35.28;101002.59;5016074;28;20058;-81
2022/06/05 09:34:53;;;;;;;4.22;3.08;;;;;;;28.39;35.39;101002.34;5016401;28;20042;-84
2022/06/05 09:37:35;;;;;;;3.30;3.10;;;;;;;28.24;35.05;100996.34;5020264;28;20436;-83
2022/06/05 09:40:20;;;;;;;4.80;3.38;;;;;;;28.08;34.98;100996.66;5034032;28;20159;-82
2022/06/05 09:43:11;;;;;;;3.70;3.28;;;;;;;28.26;35.32;100998.91;5019593;28;20484;-82
2022/06/05 09:46:20;;;;;;;3.53;3.22;;;;;;;28.82;34.42;100984.63;5021801;28;21467;-81
2022/06/05 09:49:08;;;;;;;2.97;2.88;;;;;;;28.88;33.60;100989.50;5020998;28;20580;-82
2022/06/05 09:51:40;;;;;;;5.00;3.50;;;;;;;28.92;33.91;100987.44;5001930;28;20389;-84
2022/06/05 09:54:30;;;;;;;2.90;2.75;;;;;;;29.28;33.70;100977.31;5001734;28;20056;-82
2022/06/05 10:00:38;;;;;;;3.42;3.13;;;;;;;28.49;34.68;100964.78;5008102;28;20136;-80
2022/06/05 10:03:12;;;;;;;3.33;2.75;;;;;;;28.17;34.88;100966.38;5017231;28;20133;-83
2022/06/05 10:05:45;;;;;;;4.15;3.05;;;;;;;28.05;35.40;100962.78;5000689;28;20061;-82
2022/06/05 10:08:31;;;;;;;3.95;3.28;;;;;;;27.63;35.84;100940.91;5007716;28;20045;-83
2022/06/05 10:11:01;;;;;;;3.25;3.05;;;;;;;27.61;35.57;100934.78;5004367;28;20042;-83
2022/06/05 10:13:59;;;;;;;4.18;3.08;;;;;;;28.08;34.63;100937.47;4999159;28;20057;-83
2022/06/05 10:17:21;;;;;;;5.15;3.15;;;;;;;28.50;34.28;100928.78;5015526;28;20044;-82
2022/06/05 10:20:28;;;;;;;3.47;2.95;;;;;;;28.74;33.65;100923.28;4993920;28;20051;-80
2022/06/05 10:23:33;;;;;;;3.63;2.95;;;;;;;29.32;32.56;100923.00;5015202;28;20395;-83
2022/06/05 10:26:17;;;;;;;7.10;3.90;;;;;;;30.40;30.83;100917.41;5025827;28;20045;-84
2022/06/05 10:28:46;;;;;;;4.05;3.17;;;;;;;30.90;30.37;100924.66;5017705;28;20128;-83
2022/06/05 10:31:32;;;;;;;4.72;3.55;;;;;;;31.00;29.92;100925.53;5007430;28;20049;-82
2022/06/05 10:34:36;;;;;;;4.95;3.80;;;;;;;31.50;29.75;100921.88;5034776;28;20445;-83
2022/06/05 10:37:27;;;;;;;4.40;4.00;;;;;;;32.49;28.25;100915.22;5015198;28;20057;-84
2022/06/05 10:40:20;;;;;;;3.05;2.85;;;;;;;32.53;28.09;100919.31;5016357;28;20042;-83
2022/06/05 10:43:05;;;;;;;3.17;2.97;;;;;;;32.61;28.08;100910.44;5019753;28;20109;-82
2022/06/05 10:46:00;;;;;;;3.28;3.08;;;;;;;32.96;27.79;100917.78;5020796;28;20072;-84
2022/06/05 10:49:02;;;;;;;3.47;3.28;;;;;;;32.65;27.25;100904.53;4999202;28;20176;-83
2022/06/05 10:51:43;;;;;;;3.45;3.17;;;;;;;31.84;28.71;100903.31;4999933;28;20132;-87
2022/06/05 10:54:16;;;;;;;4.18;2.50;;;;;;;31.88;28.88;100911.16;5027431;28;20520;-88
2022/06/05 10:57:10;;;;;;;8.05;2.60;;;;;;;31.87;28.66;100907.56;5022444;28;20051;-88
2022/06/05 10:59:50;;;;;;;3.30;2.25;;;;;;;31.76;28.86;100894.22;5024258;28;20045;-85
2022/06/05 11:03:02;;;;;;;5.13;2.95;;;;;;;31.31;28.95;100901.09;5030973;28;20056;-86
2022/06/05 11:06:00;;;;;;;4.60;2.70;;;;;;;30.99;29.30;100894.94;5039030;28;20100;-88
2022/06/05 11:09:00;;;;;;;2.90;2.58;;;;;;;30.49;29.93;100895.88;5024604;28;20076;-87
2022/06/05 11:14:51;;;;;;;3.25;3.03;;;;;;;30.85;29.67;100893.50;5026914;28;20037;-90
2022/06/05 11:17:31;;;;;;;3.58;3.30;;;;;;;30.62;29.84;100878.53;5011166;28;20069;-89
2022/06/05 11:20:21;;;;;;;3.17;2.83;;;;;;;31.00;29.13;100877.75;5042718;28;20041;-91
2022/06/05 11:22:59;;;;;;;2.70;2.55;;;;;;;30.65;29.41;100875.53;5029424;28;20042;-88
2022/06/05 11:25:52;;;;;;;2.88;2.67;;;;;;;30.16;30.48;100861.91;5024131;28;20137;-90
2022/06/05 11:29:04;;;;;;;3.30;3.10;;;;;;;30.25;30.24;100855.66;5007359;28;20065;-87
2022/06/05 11:32:25;;;;;;;2.75;2.53;;;;;;;30.01;30.99;100856.88;5026792;28;20144;-87
2022/06/05 11:35:17;;;;;;;2.90;2.80;;;;;;;29.07;31.97;100858.63;5008490;28;20045;-86
2022/06/05 11:38:20;;;;;;;3.97;3.03;;;;;;;28.47;33.26;100848.25;5038150;28;20231;-86
2022/06/05 11:41:04;;;;;;;2.97;2.80;;;;;;;28.97;32.07;100837.84;5025845;28;20049;-89
2022/06/05 11:43:39;;;;;;;3.67;3.38;;;;;;;29.81;31.14;100836.16;5017313;28;20213;-86
2022/06/05 11:46:22;;;;;;;3.88;3.47;;;;;;;29.90;31.26;100842.63;5027724;28;20073;-87
2022/06/05 11:49:06;;;;;;;3.78;3.45;;;;;;;30.34;30.42;100827.00;5026701;28;20132;-90
2022/06/05 11:51:51;;;;;;;3.28;2.97;;;;;;;31.02;29.87;100824.38;5011308;28;20046;-89
2022/06/05 11:54:26;;;;;;;4.72;3.10;;;;;;;32.05;28.04;100821.00;5023190;28;20037;-89
2022/06/05 11:57:23;;;;;;;3.90;3.35;;;;;;;32.24;27.62;100816.53;5010908;28;20055;-89
2022/06/05 12:00:06;;;;;;;3.45;3.25;;;;;;;33.03;26.90;100819.53;5025593;28;20384;-89
2022/06/05 12:02:54;;;;;;;5.65;5.22;;;;;;;33.34;26.61;100814.53;5028991;28;20045;-88
2022/06/05 12:05:32;;;;;;;3.10;3.00;;;;;;;33.77;25.81;100807.31;5033907;28;20045;-89
2022/06/05 12:08:12;;;;;;;3.30;2.80;;;;;;;33.44;26.19;100801.72;5029132;28;20064;-89
2022/06/05 12:10:58;;;;;;;3.58;3.38;;;;;;;32.26;27.20;100793.69;4998537;28;20114;-90
2022/06/05 12:14:08;;;;;;;4.82;4.53;;;;;;;32.23;27.56;100793.13;5010287;28;20676;-87
2022/06/05 12:16:48;;;;;;;3.05;2.85;;;;;;;32.09;28.15;100768.25;5015709;28;20755;-89
2022/06/05 12:19:32;;;;;;;3.20;3.08;;;;;;;31.91;28.23;100773.63;5046404;28;20416;-87
2022/06/05 12:22:08;;;;;;;3.17;2.95;;;;;;;30.98;29.43;100777.00;5028626;28;20496;-87
2022/06/05 12:24:47;;;;;;;3.20;3.00;;;;;;;30.06;30.73;100774.63;5043778;28;20045;-88
2022/06/05 12:27:19;;;;;;;3.35;3.15;;;;;;;29.66;31.56;100777.16;5038743;28;20041;-88
2022/06/05 12:30:15;;;;;;;4.30;2.92;;;;;;;29.36;32.57;100769.91;5016857;28;20515;-87
2022/06/05 12:32:57;;;;;;;2.95;2.85;;;;;;;29.41;31.93;100767.66;5006361;28;20137;-89
2022/06/05 12:35:39;;;;;;;3.08;2.97;;;;;;;29.05;32.44;100761.75;4993141;28;20123;-87